Girard, Kansas
Current Conditions -  °F | °C
As of 10:35 PM on Wednesday 26 Nov 2014 (Local Time) from KPTS Reporting Station
Overcast Overcast  
Wind Chill: 26°   Ceiling: 2600
Heat Index: 36°   Visibility: 10mi
Dew Point: 27°   Wind: 15mph
Humidity: 71%   Direction: 340°NNW
Pressure: 30.37"   Gusts: 20mph
Location:  37.51°N, 94.84°W
Report Text: KPTS 270435Z AUTO 34013G17KT 10SM OVC026 02/M03 A3037 RMK AO2 T00201027
Loading
Personal Weather Stations






























Interactive Weather Map New forecast layout! Learn more

10-Day Weather Forecast

Advertisements
Track Severe Weather on mobile